Bethlehem, PA (18015)

7:34 PM EDT on August 27, 2014 (GMT -0400)
South Mountain | Change Station
CLOSE
Current Station
Personal Weather Station
Location: Bethlehem, PA
Elevation: 505 ft
Nearby Weather Stations

Elev 505 ft 40.60 °N, 75.38 °W | Updated 1 minute ago

Clear
Clear
80.1 °F
Feels Like 83 °F
N
0.0
Wind Variable Wind from SSE

Today
High -- | Low -- °F
--% Chance of Precip.
Yesterday
High -- | Low -- °F
Precip. -- in
6:23 AM 7:41 PM
Waxing Crescent, 5% visible
Pressure 29.88 in
Visibility 10.0 miles
Clouds Clear
Heat Index 83 °F
Dew Point 69 °F
Humidity 70%
Rainfall 0.00 in
Snow Depth Not available.
UV 0 out of 12
Pollen 9.70 out of 12
Ozone Moderate
PM2.5 Moderate
Flu Activity Not available.
METAR KABE 272251Z 23006KT 10SM CLR 28/20 A2989 RMK AO2 SLP117 T02830200

More Conditions Fewer Conditions

Pressure 29.88 in
Visibility 10.0 miles
Clouds Clear
Heat Index 83 °F
Dew Point 69 °F
Humidity 70%
Rainfall 0.00 in
Snow Depth Not available.
UV 0 out of 12
Pollen 9.70 out of 12
Ozone Moderate
PM2.5 Moderate
Flu Activity Not available.
METAR KABE 272251Z 23006KT 10SM CLR 28/20 A2989 RMK AO2 SLP117 T02830200

More Conditions Fewer Conditions

Nowcast | as of 7:21 PM EDT on August 27, 2014

Scattered showers and isolated thunderstorms will move east southeast across portions of east central Pennsylvania through the Lehigh Valley and Poconos and probably again through Sussex County of northwest New Jersey. A couple of thunderstorms may produce half an inch of rain in 20 minutes and a northwest wind gust to 30 miles an hour as well as lightning strikes.

×

10-Day Weather Forecast

Almanac

Astronomy

Aug. 27, 2014 Rise Set
Actual Time 6:23 AM EDT 7:41 PM EDT
Civil Twilight 5:55 AM EDT 8:09 PM EDT
Nautical Twilight 5:21 AM EDT 8:43 PM EDT
Astronomical Twilight 4:45 AM EDT 9:19 PM EDT
Moon 8:18 AM EDT 8:31 PM EDT
Length of Visible Light 14h 14m
Length of Day
13h 17m
Tomorrow will be 2m 32s shorter.
Waxing Crescent, 5% of the Moon is Illuminated
Today
Waxing Crescent
Sep 2
First Quarter
Sep 8
Full
Sep 15
Last Quarter
Sep 24
New

Today's Extremes

State Highs State Lows

Community

WunderPhotos

Upload Photos

1,747,816 photos uploaded!

Nearby

Air Quality

  Air Quality AQ Index Pollutant
Yesterday Moderate
OZONE
Yesterday Moderate
PM2.5
Current Moderate
OZONE
Current Moderate
PM2.5
Wednesday Moderate
OZONE
Wednesday Moderate
PM2.5
Thursday Good
PM2.5
Thursday Good
OZONE
Friday Good
PM2.5
Friday Good
OZONE

Snow Depth

Station Depth Elevation
No new snow has been reported.

Earthquake Activity

City Distance Mag. Time & Date
No recent earthquake activity has been reported nearby.
Minimum magnitude displayed is 2.5.

Coastal Water Temperatures

Place Temperature
No Stations Reporting

Nearby Weather Stations